• Join FlightAware (Why Join?)
  • Login
  • US Flag 
10:44PM EDT


 

Airport Tracker/Info


-or-


 

Live Flight TrackerFlight Track Log ✈ UAL5829 ✈ 24-Apr-2013 ✈ KORF - KORD

Flight Track Log - Related Links

Times and Time Zones

All times are in EDT time to prevent confusion due to time zone crossing. See the UAL5829 flight status page for this flight to view local times or setup timezone preferences in your user account.

Time Position Orientation Groundspeed Altitude Reporting Facility
EDT Latitude Longitude Course Direction KTS MPH feet Rate Location/Type
02:13PM 36.8572 -76.2514 227° Southwest 191 220 2,500  Level Washington Center
02:14PM 36.8569 -76.3161 270° West 192 221 5,000 2,040 Climbing Washington Center
02:14PM 36.8647 -76.3889 278° West 226 260 6,500 1,560 Climbing Washington Center
02:15PM 36.8747 -76.4722 279° West 257 296 8,100 1,680 Climbing Washington Center
02:17PM 36.8969 -76.5581 288° West 265 305 10,200 1,320 Climbing Washington Center
02:18PM 36.9275 -76.6519 292° West 278 320 11,000 840 Climbing Washington Center
02:19PM 36.9578 -76.7589 290° West 303 349 11,900 1,020 Climbing Washington Center
02:20PM 36.9922 -76.8714 291° West 330 380 13,100 1,320 Climbing Washington Center
02:21PM 37.0242 -76.9836 290° West 343 395 14,600 1,440 Climbing Washington Center
02:22PM 37.0542 -77.0961 289° West 348 400 16,000 1,320 Climbing Washington Center
02:23PM 37.0756 -77.2111 283° West 343 395 17,300 1,200 Climbing Washington Center
02:24PM 37.0969 -77.3286 283° West 338 389 18,500 1,200 Climbing Washington Center
02:25PM 37.1161 -77.4489 281° West 338 389 19,700 1,200 Climbing Washington Center
02:26PM 37.1392 -77.5667 284° West 344 396 21,000 1,200 Climbing Washington Center
02:27PM 37.1581 -77.6869 281° West 350 403 22,200 1,200 Climbing Washington Center
02:28PM 37.1828 -77.8103 284° West 356 410 23,500 1,200 Climbing Washington Center
02:29PM 37.2394 -77.9136 305° West 356 410 24,700 1,200 Climbing Washington Center
02:30PM 37.2978 -78.0172 305° West 356 410 25,900 1,140 Climbing Washington Center
02:31PM 37.3561 -78.1158 307° West 361 415 27,000 720 Climbing Washington Center
02:32PM 37.4186 -78.2225 306° West 368 423 27,400 540 Climbing Washington Center
02:33PM 37.4767 -78.3292 304° West 368 423 28,100 720 Climbing Washington Center
02:34PM 37.5197 -78.4511 294° West 373 429 28,900 720 Climbing Washington Center
02:35PM 37.5628 -78.5733 294° West 373 429 29,600 540 Climbing Washington Center
02:36PM 37.6072 -78.7086 293° West 378 435 30,000 300 Climbing Washington Center
02:37PM 37.6731 -78.8217 306° West 383 441 30,200 540 Climbing Washington Center
02:38PM 37.7536 -78.9247 315° West 400 460 31,100 1,020 Climbing Washington Center
02:39PM 37.8283 -79.0122 317° Northwest 408 470 32,300 1,140 Climbing Washington Center
02:40PM 37.9047 -79.1131 314° West 402 463 33,400 1,080 Climbing Washington Center
02:41PM 37.9747 -79.2167 311° West 390 449 34,500 1,200 Climbing Washington Center
02:42PM 38.0525 -79.3283 312° West 379 436 35,900 720 Climbing Washington Center
02:43PM 38.1161 -79.4292 309° West 373 429 36,000  Climbing Washington Center
02:44PM 38.1836 -79.5331 310° West 378 435 36,000  Level Washington Center
02:45PM 38.2469 -79.6317 309° West 393 452 36,000  Level Washington Center
02:46PM 38.3186 -79.7389 310° West 393 452 36,000  Level Washington Center
02:47PM 38.3875 -79.8486 309° West 393 452 36,000  Level Washington Center
02:48PM 38.4589 -79.9561 310° West 393 452 36,000  Level Washington Center
02:49PM 38.5400 -80.0778 310° West 398 458 36,000  Level Washington Center
02:50PM 38.6067 -80.1853 308° West 398 458 36,000  Level Washington Center
02:50PM 38.6494 -80.2467 312° West 398 458 36,000  Level Indianapolis Center
02:51PM 38.7197 -80.3547 310° West 397 457 36,000  Level Indianapolis Center
02:52PM 38.7894 -80.4622 310° West 395 455 36,000  Level Indianapolis Center
02:53PM 38.8589 -80.5697 310° West 394 453 36,000  Level Indianapolis Center
02:54PM 38.9272 -80.6792 309° West 395 455 36,000  Level Indianapolis Center
02:55PM 38.9967 -80.7869 310° West 395 455 36,000  Level Indianapolis Center
02:56PM 39.0633 -80.9286 301° West 390 449 36,000  Level Indianapolis Center
02:57PM 39.1117 -81.0483 298° West 382 440 36,000  Level Indianapolis Center
02:58PM 39.1622 -81.1700 298° West 387 445 36,000  Level Indianapolis Center
03:00PM 39.2144 -81.2894 299° West 387 445 36,000  Level Indianapolis Center
03:01PM 39.2719 -81.4075 302° West 390 449 36,000  Level Indianapolis Center
03:02PM 39.3281 -81.5253 302° West 389 448 36,000  Level Indianapolis Center
03:03PM 39.3964 -81.6686 302° West 392 451 36,000  Level Indianapolis Center
03:04PM 39.4536 -81.7894 302° West 395 455 36,000  Level Indianapolis Center
03:05PM 39.5106 -81.9097 302° West 394 453 36,000  Level Indianapolis Center
03:06PM 39.5672 -82.0306 301° West 394 453 36,000  Level Indianapolis Center
03:07PM 39.6261 -82.1553 302° West 395 455 36,000  Level Indianapolis Center
03:08PM 39.6833 -82.2783 301° West 395 455 36,000  Level Indianapolis Center
03:09PM 39.7408 -82.3986 302° West 391 450 36,000  Level Indianapolis Center
03:10PM 39.8067 -82.5428 301° West 394 453 36,000  Level Indianapolis Center
03:11PM 39.8628 -82.6650 301° West 393 452 36,000  Level Indianapolis Center
03:12PM 39.9189 -82.7881 301° West 393 452 36,000 -60 Level Indianapolis Center
03:13PM 39.9756 -82.9103 301° West 392 451 35,900  Descending Indianapolis Center
03:14PM 40.0314 -83.0325 301° West 392 451 36,000  Climbing Indianapolis Center
03:15PM 40.0889 -83.1586 301° West 402 463 36,000  Level Indianapolis Center
03:16PM 40.1569 -83.3086 301° West 411 473 36,000  Level Indianapolis Center
03:17PM 40.2133 -83.4342 300° West 402 463 36,000  Level Indianapolis Center
03:18PM 40.2683 -83.5586 300° West 395 455 36,000  Level Indianapolis Center
03:19PM 40.3244 -83.6814 301° West 391 450 36,000 -60 Level Indianapolis Center
03:20PM 40.3800 -83.8064 300° West 395 455 35,900  Descending Indianapolis Center
03:21PM 40.4358 -83.9328 300° West 399 459 36,000  Climbing Indianapolis Center
03:22PM 40.4917 -84.0594 300° West 400 460 36,000 -120 Level Indianapolis Center
03:23PM 40.5583 -84.2100 300° West 405 466 35,800 -540 Descending Indianapolis Center
03:24PM 40.6111 -84.3331 299° West 386 444 35,000 -780 Descending Indianapolis Center
03:25PM 40.6433 -84.4067 300° West 385 443 34,600 -660 Descending Chicago Center
03:26PM 40.6975 -84.5281 301° West 383 441 34,000 -300 Descending Chicago Center
03:27PM 40.7506 -84.6536 299° West 390 449 34,000  Level Chicago Center
03:28PM 40.8086 -84.7725 303° West 388 447 34,000 -240 Level Chicago Center
03:29PM 40.9183 -84.8389 335° Northwest 434 499 33,600 -900 Descending Chicago Center
03:30PM 41.0672 -84.9003 343° North 463 533 32,200 -1,380 Descending Chicago Center
03:31PM 41.1936 -84.9572 341° North 476 548 30,800 -1,320 Descending Chicago Center
03:32PM 41.2853 -85.0572 321° Northwest 433 498 29,500 -1,320 Descending Chicago Center
03:33PM 41.2950 -85.1906 276° West 368 423 28,100 -1,260 Descending Chicago Center
03:34PM 41.2906 -85.3183 267° West 351 404 27,000 -1,020 Descending Chicago Center
03:35PM 41.2850 -85.4497 267° West 350 403 26,100 -1,020 Descending Chicago Center
03:36PM 41.2797 -85.5878 267° West 366 421 25,000 -540 Descending Chicago Center
03:37PM 41.2731 -85.7458 267° West 358 412 25,000  Level Chicago Center
03:38PM 41.2706 -85.8781 269° West 357 411 25,000  Level Chicago Center
03:39PM 41.2953 -86.0117 284° West 372 428 25,000 -540 Level Chicago Center
03:40PM 41.3369 -86.1425 293° West 382 440 23,900 -1,620 Descending Chicago Center
03:41PM 41.3769 -86.2697 293° West 373 429 21,700 -2,220 Descending Chicago Center
03:42PM 41.4153 -86.3928 293° West 362 417 19,400 -2,160 Descending Chicago Center
03:43PM 41.4533 -86.5161 292° West 361 415 17,300 -2,160 Descending Chicago Center
03:45PM 41.4906 -86.6331 293° West 346 398 15,000 -2,280 Descending Chicago Center
03:46PM 41.5353 -86.7483 297° West 332 382 12,600 -1,500 Descending Chicago Center
03:47PM 41.6322 -86.7908 342° North 319 367 12,000 -540 Descending Chicago Center
03:48PM 41.7264 -86.8028 355° North 337 388 11,500 -540 Descending Chicago Center
03:49PM 41.8156 -86.8178 353° North 328 377 11,000 -480 Descending Chicago Center
03:50PM 41.8867 -86.8722 330° Northwest 316 364 10,600 -540 Descending Chicago Center
03:51PM 41.9250 -86.9781 296° West 315 362 10,000 -300 Descending Chicago Center
03:52PM 41.9706 -87.0992 297° West 307 353 10,000 -300 Level Chicago Center
03:53PM 41.9872 -87.1850 285° West 263 303 9,400 -780 Descending Chicago Center
03:54PM 41.9825 -87.2817 266° West 258 297 8,500 -900 Descending Chicago Center
03:55PM 41.9819 -87.3753 270° West 255 293 7,600 -1,020 Descending Chicago Center
03:55PM 41.9833 -87.4167 273° West 254 292 7,100 -720 Descending Chicago TRACON
03:56PM 41.9833 -87.5167 270° West 223 257 6,600 -840 Descending Chicago TRACON
03:57PM 41.9833 -87.5833 270° West 202 232 5,500 -1,140 Descending Chicago TRACON
03:58PM 41.9833 -87.6500 270° West 182 209 4,500 -1,080 Descending Chicago TRACON
03:59PM 41.9833 -87.7167 270° West 173 199 3,400 -1,140 Descending Chicago TRACON
04:00PM 41.9833 -87.7833 270° West 171 197 2,200 -1,020 Descending Chicago TRACON
04:01PM 41.9833 -87.8333 270° West 124 143 1,400 -840 Descending Chicago TRACON
04:04PM 41.9667 -87.9000 270° West  Level FlightAware Approximate